Time;durP1;ratioP1;P1;durP2;ratioP2;P2;SDS_P1;SDS_P2;PMS_P1;PMS_P2;Temp;Humidity;BMP_temperature;BMP_pressure;BME280_temperature;BME280_humidity;BME280_pressure;Samples;Min_cycle;Max_cycle;Signal;HPM_P1;HPM_P2
2023/05/22 00:00:36;;;;;;;6.47;2.33;;;;;;;20.38;54.72;101281.34;5154846;27;20442;-71
2023/05/22 00:03:04;;;;;;;6.43;2.60;;;;;;;20.40;55.10;101288.06;5154489;27;20492;-69
2023/05/22 00:05:33;;;;;;;5.47;2.00;;;;;;;20.40;55.41;101288.06;5154895;27;20442;-70
2023/05/22 00:07:59;;;;;;;5.90;2.00;;;;;;;20.39;54.95;101285.69;5154886;27;20457;-69
2023/05/22 00:10:26;;;;;;;6.90;2.60;;;;;;;20.36;54.91;101283.63;5154783;27;20430;-69
2023/05/22 00:12:52;;;;;;;7.80;2.23;;;;;;;20.33;55.00;101279.63;5154705;27;20433;-69
2023/05/22 00:15:20;;;;;;;6.50;1.90;;;;;;;20.32;54.51;101272.53;5154459;27;20484;-69
2023/05/22 00:17:47;;;;;;;7.30;2.50;;;;;;;20.30;54.45;101274.81;5154426;27;20444;-70
2023/05/22 00:20:14;;;;;;;5.77;2.03;;;;;;;20.30;54.94;101276.78;5154289;27;20477;-70
2023/05/22 00:22:41;;;;;;;7.03;2.03;;;;;;;20.29;54.71;101273.22;5154364;27;20438;-69
2023/05/22 00:25:09;;;;;;;5.90;2.50;;;;;;;20.25;55.39;101272.31;5154709;27;20533;-70
2023/05/22 00:27:35;;;;;;;5.70;2.03;;;;;;;20.23;54.61;101268.31;5154635;27;20440;-69
2023/05/22 00:30:02;;;;;;;5.90;2.27;;;;;;;20.21;54.89;101270.63;5154630;27;20429;-69
2023/05/22 00:32:30;;;;;;;5.00;1.60;;;;;;;20.18;54.72;101266.59;5154643;27;20802;-69
2023/05/22 00:34:57;;;;;;;7.43;1.87;;;;;;;20.15;54.55;101265.38;5154509;27;20461;-70
2023/05/22 00:37:24;;;;;;;5.13;1.63;;;;;;;20.15;55.70;101261.81;5154537;27;20434;-69
2023/05/22 00:39:50;;;;;;;6.40;2.13;;;;;;;20.12;55.15;101255.06;5154529;27;20893;-70
2023/05/22 00:42:18;;;;;;;6.87;2.20;;;;;;;20.10;55.51;101262.06;5154545;27;20440;-70
2023/05/22 00:44:44;;;;;;;6.63;1.83;;;;;;;20.06;55.70;101261.16;5154353;27;20476;-70
2023/05/22 00:47:11;;;;;;;5.93;2.20;;;;;;;20.02;55.26;101258.31;5154151;27;20819;-69
2023/05/22 00:49:39;;;;;;;7.70;2.67;;;;;;;20.01;55.09;101258.63;5154134;27;20477;-69
2023/05/22 00:52:07;;;;;;;5.80;1.80;;;;;;;19.98;56.24;101249.16;5154130;27;20866;-70
2023/05/22 00:54:33;;;;;;;6.73;2.13;;;;;;;19.93;56.39;101251.34;5153873;27;20990;-70
2023/05/22 00:57:01;;;;;;;6.13;2.23;;;;;;;19.88;55.88;101255.16;5154447;27;20433;-69
2023/05/22 00:59:29;;;;;;;6.03;2.17;;;;;;;19.84;55.31;101255.03;5154259;27;20473;-70
2023/05/22 01:01:56;;;;;;;6.13;2.10;;;;;;;19.83;56.00;101255.38;5154338;27;20441;-70
2023/05/22 01:04:24;;;;;;;5.60;2.13;;;;;;;19.82;55.94;101254.56;5157606;27;20464;-70
2023/05/22 01:06:53;;;;;;;6.10;2.07;;;;;;;19.79;55.94;101246.22;5158092;27;20440;-69
2023/05/22 01:09:19;;;;;;;6.03;2.00;;;;;;;19.75;55.13;101253.56;5157981;27;20537;-69
2023/05/22 01:11:55;;;;;;;7.17;2.30;;;;;;;19.70;54.15;101246.38;5157661;27;20479;-69
2023/05/22 01:14:29;;;;;;;6.90;2.30;;;;;;;19.62;55.28;101250.03;5157861;27;20548;-69
2023/05/22 01:17:07;;;;;;;7.20;2.40;;;;;;;19.57;55.05;101253.00;5157622;27;20474;-69
2023/05/22 01:20:05;;;;;;;6.50;2.40;;;;;;;19.53;56.21;101254.84;5157822;27;20556;-69
2023/05/22 01:23:04;;;;;;;5.53;1.70;;;;;;;19.49;55.64;101259.41;5157533;27;20426;-69
2023/05/22 01:26:13;;;;;;;8.73;3.13;;;;;;;19.46;55.24;101246.34;5157711;27;20436;-69
2023/05/22 01:28:57;;;;;;;7.90;3.07;;;;;;;19.42;55.67;101249.78;5157663;27;20422;-71
2023/05/22 01:31:29;;;;;;;6.90;2.03;;;;;;;19.42;55.97;101246.25;5157242;27;20913;-72
2023/05/22 01:33:58;;;;;;;7.10;2.80;;;;;;;19.38;56.59;101246.13;5157074;27;20469;-72
2023/05/22 01:36:33;;;;;;;6.03;1.90;;;;;;;19.32;56.72;101246.72;5157449;27;20440;-71
2023/05/22 01:39:04;;;;;;;5.27;1.70;;;;;;;19.29;57.26;101242.69;5157386;27;20457;-71
2023/05/22 01:41:32;;;;;;;7.30;2.83;;;;;;;19.26;57.72;101250.84;5157390;27;20430;-71
2023/05/22 01:44:00;;;;;;;6.80;2.50;;;;;;;19.20;58.29;101250.25;5157008;27;21033;-71
2023/05/22 01:46:29;;;;;;;6.40;2.13;;;;;;;19.15;58.53;101234.00;5156901;27;20438;-71
2023/05/22 01:48:56;;;;;;;6.57;2.60;;;;;;;19.07;59.24;101246.69;5157013;27;20935;-71
2023/05/22 01:51:31;;;;;;;6.43;2.37;;;;;;;19.00;60.13;101245.69;5156855;27;20971;-71
2023/05/22 01:54:04;;;;;;;6.20;2.03;;;;;;;18.90;60.12;101241.41;5157056;27;20510;-71
2023/05/22 01:56:39;;;;;;;5.60;2.00;;;;;;;18.83;60.59;101244.75;5156676;27;20833;-71
2023/05/22 01:59:14;;;;;;;6.30;2.57;;;;;;;18.77;60.78;101237.03;5156994;27;20461;-71
2023/05/22 02:01:43;;;;;;;6.00;2.37;;;;;;;18.70;61.23;101243.09;5156756;27;20806;-70
2023/05/22 02:04:11;;;;;;;8.63;3.07;;;;;;;18.65;61.97;101240.56;5156901;27;20453;-71
2023/05/22 02:06:38;;;;;;;6.20;2.40;;;;;;;18.59;62.60;101242.72;5156533;27;20958;-71
2023/05/22 02:09:06;;;;;;;7.83;2.90;;;;;;;18.52;62.41;101245.22;5156565;27;20927;-71
2023/05/22 02:11:33;;;;;;;7.67;2.80;;;;;;;18.50;62.40;101238.44;5156387;27;20807;-71
2023/05/22 02:14:01;;;;;;;6.53;2.53;;;;;;;18.45;62.48;101244.94;5156595;27;20464;-71
2023/05/22 02:16:29;;;;;;;8.43;2.90;;;;;;;18.43;62.45;101244.50;5156771;27;20443;-71
2023/05/22 02:19:04;;;;;;;6.53;2.53;;;;;;;18.37;62.27;101246.66;5156287;27;20964;-71
2023/05/22 02:21:31;;;;;;;6.87;2.57;;;;;;;18.34;62.72;101247.31;5156629;27;20426;-71
2023/05/22 02:23:57;;;;;;;6.33;2.40;;;;;;;18.32;62.91;101246.03;5156560;27;20836;-71
2023/05/22 02:26:24;;;;;;;6.90;2.37;;;;;;;18.29;62.97;101238.50;5156528;27;20477;-71
2023/05/22 02:28:50;;;;;;;6.73;2.60;;;;;;;18.29;62.66;101244.00;5156177;27;20934;-70
2023/05/22 02:31:18;;;;;;;6.43;2.57;;;;;;;18.25;62.59;101238.38;5156633;27;20430;-71
2023/05/22 02:33:44;;;;;;;5.97;2.33;;;;;;;18.23;62.34;101243.38;5155952;27;20974;-71
2023/05/22 02:36:13;;;;;;;6.50;2.60;;;;;;;18.22;62.36;101239.03;5156393;27;20433;-71
2023/05/22 02:38:40;;;;;;;6.23;2.47;;;;;;;18.22;62.73;101230.81;5155994;27;20449;-71
2023/05/22 02:41:07;;;;;;;7.20;3.20;;;;;;;18.21;62.57;101237.44;5156143;27;20860;-71
2023/05/22 02:43:34;;;;;;;8.10;2.50;;;;;;;18.20;61.64;101238.59;5156109;27;20496;-71
2023/05/22 02:46:01;;;;;;;7.00;2.93;;;;;;;18.19;61.76;101234.22;5156162;27;20456;-71
2023/05/22 02:48:28;;;;;;;6.70;2.50;;;;;;;18.24;61.76;101233.22;5156105;27;20470;-71
2023/05/22 02:50:55;;;;;;;6.50;2.57;;;;;;;18.22;61.77;101228.06;5155971;27;20426;-71
2023/05/22 02:53:22;;;;;;;8.80;2.23;;;;;;;18.20;61.20;101230.34;5155877;27;20497;-71
2023/05/22 02:55:51;;;;;;;7.83;2.70;;;;;;;18.22;62.04;101230.00;5155474;27;20453;-71
2023/05/22 02:58:18;;;;;;;7.27;2.57;;;;;;;18.19;61.63;101223.25;5155605;27;20446;-71
2023/05/22 03:00:45;;;;;;;5.70;2.30;;;;;;;18.17;61.09;101224.75;5155447;27;21019;-71
2023/05/22 03:03:11;;;;;;;7.67;2.73;;;;;;;18.19;61.35;101223.25;5155704;27;20453;-71
2023/05/22 03:05:38;;;;;;;6.40;2.10;;;;;;;18.17;61.25;101222.78;5155695;27;20438;-71
2023/05/22 03:08:06;;;;;;;6.70;2.63;;;;;;;18.20;60.93;101222.13;5155658;27;20441;-71
2023/05/22 03:10:34;;;;;;;13.47;2.93;;;;;;;18.20;61.19;101219.38;5155613;27;20490;-71
2023/05/22 03:13:00;;;;;;;8.03;3.13;;;;;;;18.15;60.33;101217.66;5155645;27;20473;-71
2023/05/22 03:15:27;;;;;;;7.53;2.50;;;;;;;18.12;60.21;101229.28;5155574;27;20477;-70
2023/05/22 03:17:53;;;;;;;6.53;2.33;;;;;;;18.14;60.29;101221.53;5155256;27;20606;-70
2023/05/22 03:20:20;;;;;;;7.53;2.70;;;;;;;18.15;60.85;101214.13;5155093;27;21089;-71
2023/05/22 03:22:47;;;;;;;10.50;2.90;;;;;;;18.14;60.62;101213.28;5155355;27;20465;-71
2023/05/22 03:25:13;;;;;;;7.03;2.20;;;;;;;18.15;59.80;101208.63;5154631;27;20964;-70
2023/05/22 03:27:41;;;;;;;7.47;2.83;;;;;;;18.18;60.11;101207.94;5155359;27;20438;-71
2023/05/22 03:30:08;;;;;;;6.07;2.67;;;;;;;18.18;60.01;101216.16;5155359;27;20524;-71
2023/05/22 03:32:36;;;;;;;7.00;2.60;;;;;;;18.20;60.00;101211.16;5155242;27;20434;-71
2023/05/22 03:35:04;;;;;;;6.27;2.50;;;;;;;18.22;60.40;101210.81;5155144;27;20464;-71
2023/05/22 03:37:30;;;;;;;6.30;2.40;;;;;;;18.20;60.37;101205.69;5155209;27;20450;-71
2023/05/22 03:39:57;;;;;;;6.00;2.33;;;;;;;18.18;60.82;101205.19;5155086;27;20473;-71
2023/05/22 03:42:23;;;;;;;6.20;2.30;;;;;;;18.23;60.50;101204.97;5155165;27;20460;-70
2023/05/22 03:44:51;;;;;;;7.70;2.37;;;;;;;18.18;60.92;101201.66;5155062;27;20457;-71
2023/05/22 03:47:18;;;;;;;7.40;3.00;;;;;;;18.20;60.88;101202.94;5155068;27;20442;-70
2023/05/22 03:49:45;;;;;;;6.83;2.60;;;;;;;18.21;60.78;101204.53;5154730;27;20443;-71
2023/05/22 03:52:11;;;;;;;6.77;2.03;;;;;;;18.21;61.04;101206.47;5155038;27;20528;-70
2023/05/22 03:54:38;;;;;;;6.97;2.33;;;;;;;18.18;60.92;101204.41;5154717;27;20464;-71
2023/05/22 03:57:05;;;;;;;9.63;2.33;;;;;;;18.18;60.53;101205.19;5154653;27;20445;-71
2023/05/22 03:59:32;;;;;;;10.90;3.00;;;;;;;18.20;60.71;101204.88;5154859;27;20445;-71
2023/05/22 04:02:00;;;;;;;6.50;2.23;;;;;;;18.22;61.54;101203.38;5154852;27;20477;-70
2023/05/22 04:04:27;;;;;;;7.53;2.43;;;;;;;18.23;62.38;101201.44;5154774;27;20453;-71
2023/05/22 04:06:56;;;;;;;9.20;3.00;;;;;;;18.22;62.35;101203.38;5154598;27;20445;-73
2023/05/22 04:09:26;;;;;;;6.67;2.67;;;;;;;18.23;62.81;101204.97;5154787;27;20469;-71
2023/05/22 04:11:53;;;;;;;5.90;2.17;;;;;;;18.24;62.65;101203.03;5154839;27;20448;-71
2023/05/22 04:14:19;;;;;;;7.63;2.67;;;;;;;18.25;62.21;101205.47;5154737;27;20468;-72
2023/05/22 04:16:46;;;;;;;9.37;3.23;;;;;;;18.24;62.43;101200.28;5154398;27;20934;-72
2023/05/22 04:19:14;;;;;;;9.10;3.20;;;;;;;18.25;62.73;101204.66;5154696;27;20473;-71
2023/05/22 04:21:41;;;;;;;6.50;2.30;;;;;;;18.25;62.91;101201.94;5154652;27;20508;-71
2023/05/22 04:24:08;;;;;;;6.20;2.50;;;;;;;18.26;63.17;101204.31;5154649;27;20462;-71
2023/05/22 04:26:34;;;;;;;9.17;3.00;;;;;;;18.25;63.14;101208.22;5154355;27;20516;-71
2023/05/22 04:29:01;;;;;;;7.53;2.87;;;;;;;18.29;61.82;101206.41;5154314;27;20438;-71
2023/05/22 04:31:29;;;;;;;6.40;2.50;;;;;;;18.32;62.46;101211.19;5154335;27;20434;-71
2023/05/22 04:33:58;;;;;;;8.30;3.33;;;;;;;18.33;63.03;101207.31;5154541;27;20496;-71
2023/05/22 04:36:27;;;;;;;5.50;2.00;;;;;;;18.38;61.72;101217.28;5154250;27;20446;-71
2023/05/22 04:38:54;;;;;;;7.37;3.00;;;;;;;18.38;62.35;101214.53;5157406;27;20461;-71
2023/05/22 04:41:25;;;;;;;7.00;2.20;;;;;;;18.44;62.72;101206.88;5158184;27;20480;-71
2023/05/22 04:43:52;;;;;;;6.80;2.47;;;;;;;18.45;62.72;101212.03;5158796;27;20479;-71
2023/05/22 04:46:19;;;;;;;12.60;2.87;;;;;;;18.46;62.85;101210.09;5158481;27;20455;-72
2023/05/22 04:48:46;;;;;;;8.13;2.80;;;;;;;18.46;63.16;101204.59;5158082;27;20437;-71
2023/05/22 04:51:13;;;;;;;7.33;3.27;;;;;;;18.48;63.33;101210.56;5158376;27;20445;-72
2023/05/22 04:53:41;;;;;;;7.03;3.20;;;;;;;18.48;63.45;101210.56;5157822;27;20469;-71
2023/05/22 04:56:07;;;;;;;6.23;2.60;;;;;;;18.48;63.50;101199.59;5158061;27;20449;-72
2023/05/22 04:58:36;;;;;;;10.83;3.23;;;;;;;18.44;63.18;101195.91;5158189;27;20488;-71
2023/05/22 05:01:03;;;;;;;6.70;2.50;;;;;;;18.41;62.54;101192.69;5158154;27;20481;-72
2023/05/22 05:03:30;;;;;;;7.10;2.87;;;;;;;18.41;62.83;101198.19;5157725;27;21000;-71
2023/05/22 05:05:58;;;;;;;6.73;2.40;;;;;;;18.40;63.51;101202.06;5158111;27;20443;-72
2023/05/22 05:08:24;;;;;;;7.00;2.53;;;;;;;18.37;62.50;101193.72;5158241;27;20441;-71
2023/05/22 05:10:52;;;;;;;6.57;2.37;;;;;;;18.36;63.25;101192.13;5158038;27;20437;-74
2023/05/22 05:13:19;;;;;;;7.97;2.40;;;;;;;18.31;63.34;101189.59;5157956;27;20497;-68
2023/05/22 05:15:46;;;;;;;6.70;2.20;;;;;;;18.30;63.51;101190.75;5157926;27;20471;-70
2023/05/22 05:18:12;;;;;;;6.57;2.30;;;;;;;18.28;64.06;101193.81;5157761;27;20445;-72
2023/05/22 05:20:39;;;;;;;7.70;2.70;;;;;;;18.26;64.55;101187.88;5157694;27;20482;-69
2023/05/22 05:23:05;;;;;;;12.00;2.97;;;;;;;18.28;64.41;101193.00;5157366;27;21041;-70
2023/05/22 05:25:32;;;;;;;7.50;2.27;;;;;;;18.26;63.98;101189.81;5157603;27;20460;-70
2023/05/22 05:28:00;;;;;;;8.53;2.83;;;;;;;18.25;63.29;101191.75;5157723;27;20437;-70
2023/05/22 05:30:28;;;;;;;6.73;2.63;;;;;;;18.27;64.05;101200.44;5157554;27;20476;-71
2023/05/22 05:32:55;;;;;;;7.50;3.00;;;;;;;18.28;64.70;101193.81;5157444;27;20442;-69
2023/05/22 05:35:21;;;;;;;6.00;2.37;;;;;;;18.34;64.32;101197.94;5157496;27;20433;-69
2023/05/22 05:37:48;;;;;;;6.27;2.33;;;;;;;18.44;64.21;101201.41;5157451;27;20434;-69
2023/05/22 05:40:15;;;;;;;8.10;3.20;;;;;;;18.56;64.53;101204.97;5157082;27;21044;-69
2023/05/22 05:42:41;;;;;;;7.40;3.00;;;;;;;18.63;63.72;101199.72;5157380;27;20472;-69
2023/05/22 05:45:11;;;;;;;6.80;2.80;;;;;;;18.69;62.90;101208.59;5157227;27;20460;-69
2023/05/22 05:47:37;;;;;;;12.00;3.07;;;;;;;18.77;62.74;101215.91;5156977;27;20943;-69
2023/05/22 05:50:05;;;;;;;7.80;2.40;;;;;;;18.85;62.89;101215.00;5156884;27;20846;-68
2023/05/22 05:52:32;;;;;;;7.70;3.50;;;;;;;18.86;62.99;101213.06;5157184;27;20495;-70
2023/05/22 05:54:59;;;;;;;5.87;2.37;;;;;;;18.90;63.22;101212.03;5156598;27;20509;-75
2023/05/22 05:57:26;;;;;;;9.80;3.83;;;;;;;18.96;62.23;101211.81;5157161;27;20441;-74
2023/05/22 05:59:52;;;;;;;7.60;3.00;;;;;;;19.03;62.51;101210.09;5158070;27;20517;-72
2023/05/22 06:02:20;;;;;;;7.83;3.30;;;;;;;19.03;61.59;101210.09;5156890;27;20486;-70
2023/05/22 06:04:48;;;;;;;7.50;3.33;;;;;;;19.05;61.81;101205.06;5156486;27;20496;-70
2023/05/22 06:07:14;;;;;;;8.03;2.87;;;;;;;19.15;61.56;101209.28;5156921;27;20448;-70
2023/05/22 06:09:41;;;;;;;8.23;3.37;;;;;;;19.22;61.74;101209.53;5156815;27;20437;-69
2023/05/22 06:12:11;;;;;;;7.10;2.93;;;;;;;19.32;62.50;101209.06;5156747;27;20434;-70
2023/05/22 06:14:38;;;;;;;6.90;2.67;;;;;;;19.45;62.31;101203.56;5156637;27;20465;-70
2023/05/22 06:17:05;;;;;;;7.90;2.83;;;;;;;19.49;61.81;101212.69;5156748;27;20533;-70
2023/05/22 06:19:33;;;;;;;8.03;2.80;;;;;;;19.61;61.47;101204.44;5156646;27;20460;-70
2023/05/22 06:22:00;;;;;;;9.07;3.03;;;;;;;19.68;62.30;101206.63;5156565;27;20850;-70
2023/05/22 06:24:26;;;;;;;6.93;2.50;;;;;;;19.76;60.84;101200.19;5156169;27;21021;-70
2023/05/22 06:26:53;;;;;;;7.20;3.07;;;;;;;19.84;60.09;101208.28;5156549;27;20518;-69
2023/05/22 06:29:20;;;;;;;10.53;3.80;;;;;;;19.92;60.84;101206.53;5156501;27;20437;-69
2023/05/22 06:31:46;;;;;;;7.97;3.30;;;;;;;20.00;61.40;101199.28;5156379;27;20437;-69
2023/05/22 06:34:13;;;;;;;9.30;2.70;;;;;;;20.01;60.26;101195.38;5156200;27;20544;-69
2023/05/22 06:36:41;;;;;;;10.80;3.20;;;;;;;20.01;60.03;101190.72;5156332;27;20819;-69
2023/05/22 06:39:08;;;;;;;7.60;2.63;;;;;;;20.05;59.90;101197.09;5156242;27;20444;-69
2023/05/22 06:41:35;;;;;;;7.07;3.13;;;;;;;20.09;59.94;101202.69;5156071;27;20935;-70
2023/05/22 06:44:01;;;;;;;6.67;2.47;;;;;;;20.11;60.01;101203.16;5156187;27;20453;-69
2023/05/22 06:46:28;;;;;;;7.97;3.20;;;;;;;20.15;60.42;101201.31;5155820;27;20433;-69
2023/05/22 06:48:55;;;;;;;7.83;3.43;;;;;;;20.19;61.30;101198.63;5156112;27;20898;-69
2023/05/22 06:51:23;;;;;;;7.60;2.67;;;;;;;20.30;59.52;101200.53;5156145;27;20512;-69
2023/05/22 06:53:51;;;;;;;10.53;2.90;;;;;;;20.32;59.33;101195.50;5155522;27;20457;-70
2023/05/22 06:56:18;;;;;;;9.00;2.67;;;;;;;20.40;59.83;101194.50;5155492;27;20972;-70
2023/05/22 06:58:45;;;;;;;9.93;2.93;;;;;;;20.43;59.58;101201.25;5155997;27;20866;-70
2023/05/22 07:01:11;;;;;;;6.40;2.13;;;;;;;20.56;60.24;101199.28;5155069;27;20564;-70
2023/05/22 07:03:38;;;;;;;11.40;3.03;;;;;;;20.64;60.24;101198.31;5155442;27;20841;-72
2023/05/22 07:06:05;;;;;;;9.77;2.77;;;;;;;20.75;59.16;101195.81;5156086;27;20444;-75
2023/05/22 07:08:31;;;;;;;7.07;3.13;;;;;;;20.82;59.75;101191.28;5155440;27;21003;-73
2023/05/22 07:11:00;;;;;;;5.63;2.17;;;;;;;20.89;59.51;101198.91;5155739;27;20820;-75
2023/05/22 07:13:30;;;;;;;7.43;2.40;;;;;;;20.91;59.09;101200.16;5155444;27;20476;-72
2023/05/22 07:15:57;;;;;;;6.93;2.80;;;;;;;20.85;58.15;101201.59;5156053;27;20457;-72
2023/05/22 07:18:23;;;;;;;10.97;3.20;;;;;;;20.86;58.48;101203.19;5155432;27;20437;-70
2023/05/22 07:20:50;;;;;;;6.57;2.50;;;;;;;20.89;59.51;101196.16;5155465;27;20482;-70
2023/05/22 07:23:17;;;;;;;8.47;2.77;;;;;;;20.93;59.84;101202.56;5155329;27;20458;-70
2023/05/22 07:25:43;;;;;;;10.90;3.37;;;;;;;21.02;59.35;101199.63;5155290;27;20444;-71
2023/05/22 07:28:11;;;;;;;9.57;3.13;;;;;;;21.09;58.66;101197.06;5155360;27;20434;-72
2023/05/22 07:30:38;;;;;;;8.60;3.80;;;;;;;21.12;59.10;101188.06;5155073;27;20990;-71
2023/05/22 07:33:05;;;;;;;8.40;3.33;;;;;;;21.19;59.49;101193.75;5154820;27;20457;-72
2023/05/22 07:35:32;;;;;;;6.90;2.57;;;;;;;21.31;59.22;101193.66;5155238;27;20444;-70
2023/05/22 07:37:58;;;;;;;6.10;2.50;;;;;;;21.40;59.97;101188.75;5155236;27;20825;-73
2023/05/22 07:40:25;;;;;;;6.70;2.87;;;;;;;21.52;59.48;101184.28;5155242;27;20469;-73
2023/05/22 07:42:51;;;;;;;7.33;2.83;;;;;;;21.57;58.09;101181.22;5154995;27;20909;-73
2023/05/22 07:45:19;;;;;;;11.73;3.07;;;;;;;21.72;58.12;101188.63;5155183;27;20441;-73
2023/05/22 07:47:46;;;;;;;6.90;2.90;;;;;;;21.80;58.98;101192.34;5155055;27;20528;-73
2023/05/22 07:50:12;;;;;;;8.70;2.70;;;;;;;21.88;59.46;101194.09;5155045;27;20875;-73
2023/05/22 07:52:39;;;;;;;6.13;2.53;;;;;;;22.03;58.37;101181.38;5155001;27;20440;-73
2023/05/22 07:55:07;;;;;;;6.93;2.60;;;;;;;22.19;58.29;101190.41;5154719;27;20469;-73
2023/05/22 07:57:35;;;;;;;7.17;2.80;;;;;;;22.29;57.54;101183.47;5155059;27;20422;-73
2023/05/22 08:00:11;;;;;;;6.53;2.50;;;;;;;22.39;56.93;101182.88;5154952;27;20445;-73
2023/05/22 08:02:39;;;;;;;6.50;2.63;;;;;;;22.56;57.17;101192.63;5154925;27;20461;-73
2023/05/22 08:05:07;;;;;;;8.80;2.73;;;;;;;22.72;56.04;101189.78;5154455;27;20461;-73
2023/05/22 08:07:34;;;;;;;7.27;2.90;;;;;;;22.82;55.35;101186.38;5154964;27;20473;-74
2023/05/22 08:10:03;;;;;;;7.07;2.67;;;;;;;22.96;56.57;101188.59;5154835;27;20461;-74
2023/05/22 08:12:29;;;;;;;6.97;3.03;;;;;;;23.07;55.68;101195.09;5156783;27;20786;-73
2023/05/22 08:14:56;;;;;;;5.80;2.70;;;;;;;23.14;55.29;101197.97;5158738;27;20461;-73
2023/05/22 08:17:22;;;;;;;9.23;3.23;;;;;;;23.20;54.52;101181.84;5159068;27;20468;-74
2023/05/22 08:19:50;;;;;;;9.57;2.93;;;;;;;23.23;53.62;101189.41;5159044;27;20437;-74
2023/05/22 08:22:17;;;;;;;7.27;2.70;;;;;;;23.25;53.50;101184.31;5158914;27;20914;-74
2023/05/22 08:24:43;;;;;;;11.07;2.97;;;;;;;23.30;53.74;101190.31;5158824;27;20461;-74
2023/05/22 08:27:10;;;;;;;6.13;2.67;;;;;;;23.24;54.06;101183.53;5158644;27;20489;-73
2023/05/22 08:29:37;;;;;;;9.00;3.07;;;;;;;23.25;53.77;101174.06;5158759;27;20469;-73
2023/05/22 08:32:03;;;;;;;7.10;2.90;;;;;;;23.29;53.92;101174.91;5158768;27;20436;-72
2023/05/22 08:34:31;;;;;;;7.40;2.73;;;;;;;23.34;52.30;101171.81;5158437;27;20546;-71
2023/05/22 08:36:59;;;;;;;6.40;2.50;;;;;;;23.52;52.60;101169.28;5158657;27;20486;-72
2023/05/22 08:39:26;;;;;;;10.10;2.40;;;;;;;23.68;53.06;101166.34;5158679;27;20461;-72
2023/05/22 08:41:52;;;;;;;6.67;2.87;;;;;;;23.83;52.71;101170.09;5158179;27;20577;-73
2023/05/22 08:44:19;;;;;;;7.17;2.70;;;;;;;24.01;51.11;101165.56;5158178;27;20992;-73
2023/05/22 08:46:47;;;;;;;6.60;2.53;;;;;;;24.15;49.62;101175.97;5158514;27;20441;-73
2023/05/22 08:49:14;;;;;;;6.07;2.50;;;;;;;24.24;50.58;101167.38;5158530;27;20438;-73
2023/05/22 08:51:42;;;;;;;8.57;2.50;;;;;;;24.33;50.46;101168.66;5158098;27;20433;-73
2023/05/22 08:54:10;;;;;;;8.17;3.30;;;;;;;24.39;49.75;101164.41;5158003;27;20453;-73
2023/05/22 08:56:39;;;;;;;7.07;2.60;;;;;;;24.53;48.90;101160.19;5157911;27;20453;-73
2023/05/22 08:59:06;;;;;;;6.00;2.30;;;;;;;24.62;49.25;101160.66;5158080;27;20446;-73
2023/05/22 09:01:33;;;;;;;6.17;2.60;;;;;;;24.77;48.71;101159.56;5158195;27;20573;-73
2023/05/22 09:04:01;;;;;;;6.63;2.77;;;;;;;25.03;49.59;101155.00;5158136;27;20465;-73
2023/05/22 09:06:28;;;;;;;6.27;2.80;;;;;;;25.31;48.07;101154.41;5157771;27;20794;-73
2023/05/22 09:08:56;;;;;;;5.50;2.10;;;;;;;25.49;46.81;101146.19;5157769;27;20926;-73
2023/05/22 09:11:24;;;;;;;5.70;2.10;;;;;;;25.54;46.98;101143.81;5158068;27;20433;-74
2023/05/22 09:13:51;;;;;;;11.23;2.87;;;;;;;25.70;46.92;101139.94;5157810;27;20449;-74
2023/05/22 09:16:19;;;;;;;6.50;1.93;;;;;;;25.73;46.75;101145.50;5157984;27;20528;-73
2023/05/22 09:18:46;;;;;;;8.97;2.67;;;;;;;25.64;45.96;101147.84;5157894;27;20528;-73
2023/05/22 09:21:13;;;;;;;5.23;2.00;;;;;;;25.53;44.87;101141.44;5157767;27;20468;-73
2023/05/22 09:23:40;;;;;;;5.87;2.10;;;;;;;25.38;45.67;101141.38;5156905;27;20457;-73
2023/05/22 09:26:07;;;;;;;6.53;2.40;;;;;;;25.32;46.13;101140.19;5157737;27;20913;-74
2023/05/22 09:28:37;;;;;;;8.60;2.00;;;;;;;25.31;46.72;101146.09;5157678;27;20877;-74
2023/05/22 09:31:05;;;;;;;10.40;3.43;;;;;;;25.31;47.04;101141.34;5157590;27;20438;-74
2023/05/22 09:33:32;;;;;;;7.93;2.97;;;;;;;25.26;47.61;101138.13;5157436;27;20464;-73
2023/05/22 09:36:00;;;;;;;5.93;2.47;;;;;;;25.21;46.89;101139.31;5157545;27;20433;-73
2023/05/22 09:38:28;;;;;;;6.30;2.53;;;;;;;25.29;46.98;101132.63;5157252;27;21002;-73
2023/05/22 09:40:55;;;;;;;6.17;2.50;;;;;;;25.38;48.23;101124.75;5157346;27;20448;-73
2023/05/22 09:43:24;;;;;;;6.33;2.50;;;;;;;25.37;48.74;101128.69;5157354;27;20487;-73
2023/05/22 09:45:56;;;;;;;11.50;3.33;;;;;;;25.34;48.88;101137.00;5157062;27;20931;-73
2023/05/22 09:48:23;;;;;;;11.20;2.90;;;;;;;25.33;48.80;101127.88;5157373;27;20433;-72
2023/05/22 09:50:53;;;;;;;12.43;3.47;;;;;;;25.38;49.97;101135.03;5157252;27;20445;-72
2023/05/22 09:53:21;;;;;;;5.53;2.00;;;;;;;25.35;49.19;101127.50;5157122;27;20454;-72
2023/05/22 09:55:48;;;;;;;6.10;2.43;;;;;;;25.09;48.34;101128.53;5156877;27;20458;-74
2023/05/22 09:58:19;;;;;;;7.23;2.20;;;;;;;25.21;49.46;101125.44;5156778;27;20995;-72
2023/05/22 10:00:48;;;;;;;7.10;2.63;;;;;;;25.29;51.12;101123.50;5156817;27;20430;-69
2023/05/22 10:03:20;;;;;;;8.37;2.60;;;;;;;25.29;46.83;101127.06;5157304;27;20883;-70
2023/05/22 10:05:51;;;;;;;5.03;1.80;;;;;;;25.44;48.40;101124.34;5157467;27;20860;-69
2023/05/22 10:08:21;;;;;;;6.70;2.90;;;;;;;25.49;48.53;101119.22;5157366;27;20524;-70
2023/05/22 10:10:50;;;;;;;10.13;2.37;;;;;;;25.56;48.86;101132.34;5156853;27;20485;-70
2023/05/22 10:13:18;;;;;;;10.10;2.47;;;;;;;25.63;48.38;101124.03;5156733;27;20460;-69
2023/05/22 10:15:47;;;;;;;7.93;2.70;;;;;;;25.72;48.24;101132.81;5156421;27;20528;-69
2023/05/22 10:18:16;;;;;;;7.63;2.30;;;;;;;25.79;47.66;101126.50;5156437;27;20465;-69
2023/05/22 10:20:43;;;;;;;10.47;2.57;;;;;;;25.84;47.84;101118.59;5156683;27;20442;-69
2023/05/22 10:23:10;;;;;;;7.30;3.57;;;;;;;25.77;47.24;101117.78;5156471;27;20481;-70
2023/05/22 10:25:38;;;;;;;6.13;2.47;;;;;;;25.77;47.44;101128.88;5156542;27;20437;-70
2023/05/22 10:28:05;;;;;;;6.40;2.40;;;;;;;25.78;45.86;101109.06;5156540;27;20449;-70
2023/05/22 10:30:36;;;;;;;5.97;2.23;;;;;;;25.82;46.14;101112.66;5156515;27;20521;-70
2023/05/22 10:33:07;;;;;;;6.87;2.57;;;;;;;25.96;47.42;101108.31;5156488;27;20418;-70
2023/05/22 10:35:42;;;;;;;6.40;2.47;;;;;;;26.06;46.83;101108.31;5155360;27;20509;-70
2023/05/22 10:38:28;;;;;;;6.53;2.27;;;;;;;26.26;46.48;101105.97;5156376;27;20512;-70
2023/05/22 10:40:56;;;;;;;6.50;2.57;;;;;;;26.39;46.56;101109.16;5156380;27;20457;-69
2023/05/22 10:43:23;;;;;;;5.77;2.23;;;;;;;26.37;46.29;101106.75;5155734;27;20568;-69
2023/05/22 10:45:49;;;;;;;6.27;2.53;;;;;;;26.34;45.06;101090.09;5156196;27;20430;-69
2023/05/22 10:48:21;;;;;;;6.63;2.23;;;;;;;26.47;48.39;101087.72;5155826;27;21029;-70
2023/05/22 10:50:52;;;;;;;6.30;1.93;;;;;;;26.59;52.12;101090.13;5155770;27;20453;-69
2023/05/22 10:53:21;;;;;;;5.50;2.33;;;;;;;26.58;54.56;101075.44;5155979;27;20450;-69
2023/05/22 10:55:48;;;;;;;6.33;2.53;;;;;;;26.54;50.37;101085.75;5155608;27;20452;-70
2023/05/22 10:58:16;;;;;;;6.33;2.30;;;;;;;26.50;48.34;101075.84;5155670;27;20433;-74
2023/05/22 11:00:42;;;;;;;6.80;2.13;;;;;;;26.52;48.86;101071.47;5155865;27;20448;-70
2023/05/22 11:03:10;;;;;;;7.53;2.60;;;;;;;26.48;48.51;101078.22;5155652;27;20505;-74
2023/05/22 11:05:38;;;;;;;5.67;2.20;;;;;;;26.49;47.27;101072.25;5155885;27;20441;-74
2023/05/22 11:08:45;;;;;;;5.73;2.00;;;;;;;26.55;46.27;101073.44;5155794;27;20486;-72
2023/05/22 11:11:16;;;;;;;9.57;2.90;;;;;;;26.61;45.51;101082.97;5155677;27;20441;-72
2023/05/22 11:13:42;;;;;;;5.60;2.40;;;;;;;26.74;45.49;101065.84;5155298;27;20458;-72
2023/05/22 11:16:10;;;;;;;6.13;2.57;;;;;;;26.98;44.47;101069.78;5155570;27;20430;-71
2023/05/22 11:18:37;;;;;;;8.13;2.70;;;;;;;27.24;44.81;101069.34;5155140;27;20934;-70
2023/05/22 11:21:04;;;;;;;5.70;2.53;;;;;;;27.56;44.36;101071.16;5155473;27;20445;-70
2023/05/22 11:23:35;;;;;;;6.27;2.10;;;;;;;27.84;43.97;101067.44;5155321;27;20482;-71
2023/05/22 11:26:21;;;;;;;7.50;2.43;;;;;;;28.31;42.52;101070.69;5155431;27;20804;-71
2023/05/22 11:28:52;;;;;;;6.10;2.40;;;;;;;28.74;39.91;101070.31;5155122;27;20462;-70